createdAt,value
2023-03-26T00:00:40.772Z,70.70
2023-03-26T00:05:45.034Z,68.95
2023-03-26T00:10:47.304Z,68.35
2023-03-26T00:15:48.887Z,68.62
2023-03-26T00:20:52.635Z,68.60
2023-03-26T00:25:56.328Z,69.11
2023-03-26T00:31:03.896Z,69.00
2023-03-26T00:36:10.047Z,69.21
2023-03-26T00:41:25.104Z,68.63
2023-03-26T00:46:31.439Z,68.73
2023-03-26T00:51:34.142Z,68.92
2023-03-26T00:56:36.016Z,68.65
2023-03-26T01:06:42.106Z,69.64
2023-03-26T01:11:44.957Z,67.66
2023-03-26T01:16:58.086Z,69.03
2023-03-26T01:22:00.639Z,68.68
2023-03-26T01:27:39.053Z,69.06
2023-03-26T01:33:05.582Z,69.06
2023-03-26T01:38:12.924Z,69.87
2023-03-26T01:43:29.628Z,68.99
2023-03-26T01:48:39.534Z,68.94
2023-03-26T01:53:45.043Z,70.08
2023-03-26T01:59:01.561Z,70.55
2023-03-26T02:04:20.909Z,69.88
2023-03-26T02:09:26.161Z,69.22
2023-03-26T02:14:30.416Z,68.33
2023-03-26T02:19:32.046Z,69.48
2023-03-26T02:24:33.646Z,69.20
2023-03-26T02:29:39.930Z,67.77
2023-03-26T02:34:41.937Z,69.01
2023-03-26T02:39:43.643Z,70.71
2023-03-26T02:44:45.301Z,69.61
2023-03-26T02:49:46.944Z,69.62
2023-03-26T02:54:48.593Z,69.19
2023-03-26T02:59:50.482Z,69.43
2023-03-26T03:04:52.090Z,71.40
2023-03-26T03:09:53.677Z,73.55
2023-03-26T03:14:55.265Z,71.88
2023-03-26T03:19:56.943Z,72.09
2023-03-26T03:25:00.013Z,71.05
2023-03-26T03:30:01.656Z,72.91
2023-03-26T03:35:03.425Z,70.63
2023-03-26T03:40:08.349Z,71.37
2023-03-26T03:45:10.497Z,70.39
2023-03-26T03:50:12.124Z,72.36
2023-03-26T03:55:14.171Z,72.03
2023-03-26T04:00:16.270Z,72.22
2023-03-26T04:05:17.853Z,72.90
2023-03-26T04:10:19.543Z,73.75
2023-03-26T04:15:21.177Z,74.96
2023-03-26T04:20:23.322Z,75.63
2023-03-26T04:25:30.442Z,74.40
2023-03-26T04:30:33.769Z,72.90
2023-03-26T04:35:35.655Z,71.15
2023-03-26T04:40:39.183Z,71.07
2023-03-26T04:45:40.799Z,71.33
2023-03-26T04:50:44.415Z,71.17
2023-03-26T04:55:57.382Z,71.88
2023-03-26T05:01:09.713Z,71.59
2023-03-26T05:06:13.845Z,70.45
2023-03-26T05:11:15.568Z,70.15
2023-03-26T05:16:17.333Z,72.18
2023-03-26T05:21:18.996Z,72.75
2023-03-26T05:26:21.059Z,74.07
2023-03-26T05:31:22.747Z,73.17
2023-03-26T05:36:24.676Z,75.46
2023-03-26T05:41:26.439Z,73.57
2023-03-26T05:46:29.017Z,75.35
2023-03-26T05:51:30.718Z,74.45
2023-03-26T05:56:32.396Z,72.76
2023-03-26T06:01:34.060Z,73.17
2023-03-26T06:06:36.148Z,74.01
2023-03-26T06:11:37.755Z,73.57
2023-03-26T06:16:39.404Z,71.97
2023-03-26T06:21:41.112Z,71.99
2023-03-26T06:26:43.105Z,72.39
2023-03-26T06:31:44.770Z,73.37
2023-03-26T06:36:48.825Z,74.10
2023-03-26T06:41:50.480Z,74.48
2023-03-26T06:46:52.216Z,73.01
2023-03-26T06:51:53.891Z,72.29
2023-03-26T06:56:56.454Z,73.58
2023-03-26T07:01:58.086Z,73.44
2023-03-26T07:06:59.744Z,73.57
2023-03-26T07:12:01.444Z,74.27
2023-03-26T07:17:03.072Z,74.49
2023-03-26T07:22:06.502Z,74.92
2023-03-26T07:27:32.609Z,76.24
2023-03-26T07:32:40.401Z,76.73
2023-03-26T07:38:01.183Z,76.49
2023-03-26T07:44:01.625Z,75.55
2023-03-26T07:49:04.902Z,75.93
2023-03-26T07:54:09.042Z,76.46
2023-03-26T07:59:10.595Z,75.38
2023-03-26T08:04:39.313Z,75.29
2023-03-26T08:09:57.066Z,75.01
2023-03-26T08:15:11.082Z,74.51
2023-03-26T08:20:21.416Z,75.36
2023-03-26T08:25:28.215Z,74.56
2023-03-26T08:30:31.039Z,75.21
2023-03-26T08:35:35.299Z,77.15
2023-03-26T08:40:55.875Z,75.90
2023-03-26T08:46:21.560Z,78.34
2023-03-26T08:51:45.766Z,77.76
2023-03-26T08:57:18.283Z,75.69
2023-03-26T09:02:22.932Z,76.73
2023-03-26T09:07:44.271Z,75.79
2023-03-26T09:13:07.032Z,75.61
2023-03-26T09:18:20.726Z,76.04
2023-03-26T09:23:52.682Z,75.76
2023-03-26T09:29:09.291Z,75.79
2023-03-26T09:34:13.631Z,74.41
2023-03-26T09:39:36.511Z,75.25
2023-03-26T09:45:12.125Z,73.87
2023-03-26T09:50:31.838Z,72.94
2023-03-26T09:55:51.082Z,73.00
2023-03-26T10:01:20.491Z,75.08
2023-03-26T10:06:41.484Z,74.89
2023-03-26T10:12:06.065Z,73.85
2023-03-26T10:17:35.852Z,74.09
2023-03-26T10:23:16.788Z,73.79
2023-03-26T10:28:51.133Z,74.92
2023-03-26T10:34:10.392Z,73.24
2023-03-26T10:39:56.377Z,74.45
2023-03-26T10:45:31.686Z,73.44
2023-03-26T10:51:00.165Z,74.02
2023-03-26T10:56:15.024Z,71.82
2023-03-26T11:01:36.020Z,72.13
2023-03-26T11:06:51.682Z,69.19
2023-03-26T11:12:26.553Z,68.39
2023-03-26T11:17:54.965Z,68.82
2023-03-26T11:23:22.937Z,68.63
2023-03-26T11:29:03.309Z,69.44
2023-03-26T11:34:13.557Z,67.20
2023-03-26T11:39:23.269Z,68.40
2023-03-26T11:44:30.909Z,65.56
2023-03-26T11:49:32.998Z,63.56
2023-03-26T11:54:34.830Z,64.58
2023-03-26T11:59:57.165Z,62.88
2023-03-26T12:05:15.596Z,63.27
2023-03-26T12:10:25.006Z,62.85
2023-03-26T12:15:27.965Z,65.31
2023-03-26T12:20:29.569Z,63.23
2023-03-26T12:25:39.214Z,61.20
2023-03-26T12:30:50.833Z,64.15
2023-03-26T12:35:53.338Z,61.26
2023-03-26T12:42:52.888Z,61.94
2023-03-26T12:47:55.730Z,60.91
2023-03-26T12:52:23.309Z,62.09
2023-03-26T12:57:47.242Z,60.06
2023-03-26T13:03:04.127Z,57.72
2023-03-26T13:08:49.812Z,59.29
2023-03-26T13:14:13.991Z,57.82
2023-03-26T13:19:28.889Z,59.59
2023-03-26T13:24:39.926Z,60.67
2023-03-26T13:30:01.738Z,56.37
2023-03-26T13:35:22.360Z,54.55
2023-03-26T13:40:36.584Z,53.04
2023-03-26T13:46:20.333Z,53.37
2023-03-26T13:51:30.994Z,53.07
2023-03-26T13:56:43.261Z,53.27
2023-03-26T14:01:53.603Z,53.93
2023-03-26T14:07:16.249Z,54.58
2023-03-26T14:12:51.647Z,53.53
2023-03-26T14:18:16.028Z,53.73
2023-03-26T14:23:55.469Z,53.98
2023-03-26T14:29:12.493Z,53.60
2023-03-26T14:34:23.574Z,53.78
2023-03-26T14:39:51.945Z,53.89
2023-03-26T14:45:24.095Z,55.36
2023-03-26T14:50:50.551Z,55.87
2023-03-26T14:56:04.661Z,55.59
2023-03-26T15:01:27.116Z,56.52
2023-03-26T15:07:07.087Z,56.59
2023-03-26T15:12:23.603Z,56.00
2023-03-26T15:17:37.203Z,56.39
2023-03-26T15:23:09.391Z,56.58
2023-03-26T15:28:48.769Z,57.06
2023-03-26T15:34:20.160Z,57.67
2023-03-26T15:39:58.656Z,57.45
2023-03-26T15:45:20.375Z,58.26
2023-03-26T15:50:46.727Z,58.48
2023-03-26T15:56:03.133Z,58.95
2023-03-26T16:01:41.955Z,60.20
2023-03-26T16:07:11.803Z,60.41
2023-03-26T16:12:17.350Z,62.41
2023-03-26T16:17:23.471Z,56.40
2023-03-26T16:22:57.176Z,63.00
2023-03-26T16:28:28.482Z,63.76
2023-03-26T16:33:39.041Z,65.56
2023-03-26T16:38:54.902Z,66.86
2023-03-26T16:44:11.021Z,68.71
2023-03-26T16:49:19.536Z,67.83
2023-03-26T16:54:37.177Z,67.00
2023-03-26T16:59:46.822Z,72.93
2023-03-26T17:05:45.914Z,73.66
2023-03-26T17:11:08.557Z,73.41
2023-03-26T17:16:27.512Z,75.91
2023-03-26T17:22:25.511Z,78.65
2023-03-26T17:27:56.805Z,77.77
2023-03-26T17:33:24.160Z,81.12
2023-03-26T17:38:27.238Z,81.55
2023-03-26T17:43:46.141Z,81.44
2023-03-26T17:48:57.697Z,83.51
2023-03-26T17:54:00.891Z,85.99
2023-03-26T17:59:11.297Z,88.35
2023-03-26T18:04:27.758Z,87.14
2023-03-26T18:09:49.129Z,87.17
2023-03-26T18:15:30.481Z,87.46
2023-03-26T18:20:37.362Z,89.29
2023-03-26T18:25:41.546Z,88.80
2023-03-26T18:30:49.311Z,88.70
2023-03-26T18:35:55.748Z,87.70
2023-03-26T18:40:59.546Z,88.65
2023-03-26T18:46:04.286Z,91.79
2023-03-26T18:51:08.152Z,89.57
2023-03-26T18:56:41.004Z,89.92
2023-03-26T19:01:47.260Z,88.94
2023-03-26T19:06:54.482Z,87.44
2023-03-26T19:11:59.418Z,87.74
2023-03-26T19:17:05.867Z,89.30
2023-03-26T19:22:12.751Z,88.30
2023-03-26T19:27:16.121Z,87.18
2023-03-26T19:32:32.511Z,88.24
2023-03-26T19:37:35.237Z,88.76
2023-03-26T19:42:42.978Z,89.60
2023-03-26T19:47:56.924Z,89.53
2023-03-26T19:53:16.779Z,88.05
2023-03-26T19:58:20.401Z,88.47
2023-03-26T20:03:31.373Z,88.46
2023-03-26T20:08:33.975Z,88.98
2023-03-26T20:13:37.817Z,88.36
2023-03-26T20:18:40.641Z,89.00
2023-03-26T20:23:44.438Z,89.02
2023-03-26T20:28:52.741Z,89.12
2023-03-26T20:33:56.577Z,89.58
2023-03-26T20:38:58.971Z,89.06
2023-03-26T20:44:01.551Z,87.74
2023-03-26T20:49:04.958Z,87.20
2023-03-26T20:54:08.620Z,84.65
2023-03-26T20:59:15.006Z,84.14
2023-03-26T21:04:17.920Z,81.93
2023-03-26T21:09:24.094Z,81.25
2023-03-26T21:14:32.245Z,83.22
2023-03-26T21:19:34.154Z,83.83
2023-03-26T21:25:01.483Z,83.84
2023-03-26T21:30:06.053Z,83.18
2023-03-26T21:35:08.688Z,85.64
2023-03-26T21:40:16.419Z,85.98
2023-03-26T21:45:19.439Z,86.52
2023-03-26T21:50:23.620Z,85.93
2023-03-26T21:55:25.948Z,84.43
2023-03-26T22:00:43.209Z,86.10
2023-03-26T22:06:08.652Z,83.02
2023-03-26T22:11:12.315Z,83.18
2023-03-26T22:16:14.021Z,82.77
2023-03-26T22:21:15.649Z,81.90
2023-03-26T22:26:17.213Z,82.38
2023-03-26T22:31:19.410Z,83.53
2023-03-26T22:36:23.150Z,82.59
2023-03-26T22:41:25.849Z,81.90
2023-03-26T22:46:28.924Z,82.18
2023-03-26T22:51:31.018Z,82.84
2023-03-26T22:56:32.897Z,82.93
2023-03-26T23:01:34.867Z,84.85
2023-03-26T23:06:36.757Z,84.91
2023-03-26T23:11:39.510Z,85.57
2023-03-26T23:16:42.410Z,84.33
2023-03-26T23:21:44.116Z,84.44
2023-03-26T23:26:50.768Z,84.29
2023-03-26T23:31:54.040Z,84.12
2023-03-26T23:36:55.754Z,84.60
2023-03-26T23:41:57.359Z,84.66
2023-03-26T23:47:00.569Z,83.40
2023-03-26T23:52:02.175Z,84.42
2023-03-26T23:57:04.111Z,85.57
